Terminal Aerodrome Forecast
Issued by NWS La Crosse, WI

Home | Current Version | Previous Version | Text Only | Print | Product List | Glossary On
Versions: 1 2 3 4 5 6 7 8 9 10 11 12 13 14 15 16 17 18 19 20 21 22 23 24 25 26
847
FTUS43 KARX 211720
TAFRST
TAF
KRST 211720Z 2118/2218 18015G24KT P6SM SCT150
     FM220100 17010KT P6SM BKN150
     FM220400 17013KT P6SM BKN150 WS011/19047KT
     FM220800 VRB06KT P6SM BKN150 WS015/19040KT
     FM221100 36007KT P6SM BKN080
     FM221400 02011KT 5SM -SHRA BR OVC015=

USA.gov is the U.S. government's official web portal to all federal, state and local government web resources and services.